Ravenna, OH

12:15 AM EDT on July 24, 2017 (GMT -0400)
Ravenna

Weather History for KPOV - February, 2013

Change the Weather History Date:

Tuesday, February 19, 2013

  Actual Average (KCAK) Record (KCAK)
Temperature  
Mean Temperature 30 °F -  
Max Temperature 44 °F 40 °F 65 °F (1939)
Min Temperature 17 °F 24 °F -9 °F (1936)
Degree Days  
Heating Degree Days 34    
Moisture  
Dew Point 26 °F    
Average Humidity 80    
Maximum Humidity 100    
Minimum Humidity 52    
Precipitation  
Precipitation 0.05 in - - ()
Sea Level Pressure  
Sea Level Pressure 29.73 in    
Wind  
Wind Speed 12 mph (SW)    
Max Wind Speed 24 mph    
Max Gust Speed 37 mph    
Visibility 8 miles    
Events Rain , Snow    
Averages and records for this station are not official NWS values.
T = Trace of Precipitation, MM = Missing Value Source: NWS Daily Summary

Daily Weather History Graph

Daily Weather History Graph

Search for Another Location

Airport or City:

Trip Planner

Search our weather history database for the weather conditions in past years. The results will help you decide how hot, cold, wet, or windy it might be!

Date:

Astronomy

Feb. 19, 2013 Rise Set
Actual Time 7:13 AM EST 6:04 PM EST
Civil Twilight 6:45 AM EST 6:32 PM EST
Nautical Twilight 6:13 AM EST 7:04 PM EST
Astronomical Twilight 5:41 AM EST 7:36 PM EST
Moon 12:33 PM EST (2/19) 2:46 AM EST (2/19)
Length of Visible Light 11h 46m
Length of Day
10h 50m
Waxing Gibbous, 67% of the Moon is Illuminated
Feb 19
Waxing Gibbous
Feb 25
Full
Mar 4
Last Quarter
Mar 11
New
Mar 19
First Quarter

Hourly Weather History & Observations

Time (EST) Temp. Windchill Dew Point Humidity Pressure Visibility Wind Dir Wind Speed Gust Speed Precip Events Conditions
12:15 AM 44.2 °F 41.8 °F 28.0 °F 53% 29.75 in 10.0 mi South 4.6 mph - N/A   Mostly Cloudy
12:36 AM 44.8 °F 40.4 °F 27.9 °F 52% 29.75 in 10.0 mi South 8.1 mph - N/A   Overcast
12:55 AM 44.6 °F 40.7 °F 28.0 °F 52% 29.74 in 10.0 mi SSE 6.9 mph - N/A   Overcast
1:08 AM 44.4 °F 41.2 °F 28.0 °F 53% 29.75 in 10.0 mi South 5.8 mph - N/A   Overcast
1:25 AM 44.6 °F 39.7 °F 28.4 °F 53% 29.75 in 10.0 mi South 9.2 mph 25.3 mph N/A   Overcast
1:45 AM 44.6 °F 36.6 °F 32.0 °F 61% 29.74 in 10.0 mi SSW 19.6 mph 29.9 mph N/A   Overcast
2:05 AM 42.8 °F 37.0 °F 33.8 °F 70% 29.73 in 7.0 mi South 10.4 mph 27.6 mph N/A   Overcast
2:25 AM 42.8 °F 35.8 °F 33.8 °F 70% 29.73 in 10.0 mi South 13.8 mph 25.3 mph N/A   Overcast
2:45 AM 41.0 °F 34.3 °F 33.8 °F 76% 29.72 in 10.0 mi South 11.5 mph 25.3 mph N/A   Overcast
3:05 AM 39.2 °F 33.0 °F 35.6 °F 87% 29.70 in 10.0 mi South 9.2 mph 18.4 mph N/A   Overcast
3:25 AM 39.2 °F 33.0 °F 35.6 °F 87% 29.69 in 10.0 mi South 9.2 mph 20.7 mph N/A   Overcast
3:45 AM 39.2 °F 32.0 °F 35.6 °F 87% 29.68 in 10.0 mi SSE 11.5 mph 21.9 mph N/A   Overcast
4:05 AM 39.2 °F 33.0 °F 33.8 °F 81% 29.65 in 10.0 mi SSE 9.2 mph 19.6 mph N/A   Overcast
4:25 AM 39.2 °F 33.6 °F 33.8 °F 81% 29.65 in 10.0 mi South 8.1 mph 17.3 mph N/A   Overcast
4:45 AM 39.2 °F 33.0 °F 33.8 °F 81% 29.65 in 10.0 mi South 9.2 mph 20.7 mph N/A   Overcast
5:05 AM 37.4 °F 30.8 °F 35.6 °F 93% 29.64 in 10.0 mi SSE 9.2 mph 19.6 mph N/A   Overcast
5:25 AM 37.4 °F 29.3 °F 35.6 °F 93% 29.63 in 10.0 mi South 12.7 mph 18.4 mph N/A   Overcast
5:45 AM 37.4 °F 30.8 °F 37.4 °F 100% 29.63 in 10.0 mi South 9.2 mph 20.7 mph N/A   Overcast
6:05 AM 39.2 °F 32.0 °F 39.2 °F 100% 29.61 in 10.0 mi South 11.5 mph 17.3 mph N/A   Overcast
6:25 AM 39.2 °F 32.0 °F 37.4 °F 93% 29.61 in 10.0 mi South 11.5 mph 19.6 mph N/A   Overcast
6:45 AM 39.2 °F 32.5 °F 37.4 °F 93% 29.61 in 7.0 mi South 10.4 mph 17.3 mph N/A   Overcast
7:05 AM 39.2 °F 33.0 °F 37.4 °F 93% 29.60 in 7.0 mi South 9.2 mph 19.6 mph N/A   Overcast
7:25 AM 39.2 °F 32.0 °F 37.4 °F 93% 29.60 in 10.0 mi South 11.5 mph 21.9 mph N/A   Overcast
7:45 AM 39.2 °F 33.0 °F 37.4 °F 93% 29.59 in 10.0 mi South 9.2 mph 17.3 mph N/A   Overcast
8:05 AM 41.0 °F 34.7 °F 37.4 °F 87% 29.59 in 10.0 mi South 10.4 mph 20.7 mph N/A   Overcast
8:25 AM 41.0 °F 35.8 °F 37.4 °F 87% 29.59 in 10.0 mi SSW 8.1 mph 19.6 mph N/A   Overcast
8:48 AM 38.5 °F 30.3 °F 36.5 °F 93% 29.61 in 5.0 mi WSW 13.8 mph 26.5 mph 0.03 in Rain Light Rain
8:55 AM 37.8 °F 29.0 °F 36.1 °F 94% 29.62 in 7.0 mi WSW 15.0 mph 19.6 mph 0.04 in Rain Light Rain
9:16 AM 35.4 °F 26.0 °F 34.9 °F 98% 29.63 in 7.0 mi WSW 15.0 mph 19.6 mph N/A Rain Rain
9:35 AM 34.0 °F 24.2 °F 34.2 °F 100% 29.63 in 2.5 mi WSW 15.0 mph 19.6 mph 0.01 in Snow Light Snow
9:56 AM 33.4 °F 23.5 °F 33.6 °F 100% 29.64 in 10.0 mi WSW 15.0 mph 24.2 mph 0.01 in   Overcast
10:16 AM 33.3 °F 24.1 °F 33.3 °F 100% 29.65 in 10.0 mi WSW 12.7 mph 18.4 mph N/A   Overcast
10:35 AM 33.4 °F 23.1 °F 33.6 °F 100% 29.65 in 10.0 mi WSW 16.1 mph 24.2 mph N/A   Overcast
10:56 AM - - - N/A% 29.66 in 7.0 mi WSW 18.4 mph 27.6 mph N/A   Overcast
11:16 AM 32.0 °F 22.1 °F 31.6 °F 99% 29.67 in 10.0 mi WSW 13.8 mph 20.7 mph N/A   Overcast
11:36 AM 31.1 °F 18.9 °F 27.3 °F 86% 29.68 in 10.0 mi WSW 19.6 mph 31.1 mph N/A   Overcast
11:55 AM 30.7 °F 18.8 °F 25.9 °F 82% 29.68 in 10.0 mi West 18.4 mph 23.0 mph N/A   Overcast
12:16 PM 30.2 °F 17.4 °F 25.3 °F 82% 29.69 in 10.0 mi WSW 20.7 mph 28.8 mph N/A   Overcast
12:36 PM 29.8 °F 17.7 °F 23.9 °F 79% 29.69 in 10.0 mi WSW 18.4 mph 29.9 mph N/A   Overcast
12:55 PM 28.2 °F 15.9 °F 23.2 °F 81% 29.70 in 10.0 mi West 17.3 mph 29.9 mph N/A   Overcast
1:16 PM 28.2 °F 15.9 °F 22.6 °F 80% 29.70 in 10.0 mi WSW 17.3 mph 29.9 mph N/A   Overcast
1:35 PM 28.8 °F 16.2 °F 22.1 °F 76% 29.70 in 7.0 mi WSW 18.4 mph 24.2 mph N/A Snow Light Snow
1:56 PM 28.4 °F 17.0 °F 22.3 °F 78% 29.70 in 2.0 mi SW 15.0 mph 23.0 mph N/A Snow Light Snow
2:15 PM 28.0 °F 17.0 °F 23.2 °F 82% 29.70 in 1.5 mi WSW 13.8 mph 18.4 mph N/A Snow Light Snow
2:35 PM 28.8 °F 19.5 °F 22.5 °F 77% 29.71 in 10.0 mi SW 10.4 mph 19.6 mph N/A Snow Light Snow
2:56 PM 28.0 °F 15.3 °F 21.2 °F 76% 29.72 in 3.0 mi WSW 18.4 mph 34.5 mph N/A Snow Light Snow
3:16 PM 27.5 °F 13.5 °F 18.3 °F 68% 29.74 in 10.0 mi WSW 21.9 mph 33.4 mph N/A Snow Light Snow
3:35 PM 27.3 °F 13.6 °F 18.5 °F 69% 29.74 in 10.0 mi WSW 20.7 mph 28.8 mph N/A Snow Light Snow
3:56 PM 27.5 °F 15.9 °F 18.5 °F 69% 29.74 in 10.0 mi WSW 15.0 mph 29.9 mph N/A   Overcast
4:16 PM 27.5 °F 15.9 °F 19.0 °F 71% 29.75 in 10.0 mi WSW 15.0 mph 25.3 mph N/A Snow Light Snow
4:35 PM 27.3 °F 13.3 °F 18.5 °F 69% 29.75 in 4.0 mi WSW 21.9 mph 36.8 mph N/A Snow Light Snow
4:56 PM 27.0 °F 15.2 °F 18.5 °F 70% 29.77 in 4.0 mi WSW 15.0 mph 28.8 mph N/A Snow Light Snow
5:16 PM 26.1 °F 11.0 °F 19.8 °F 77% 29.78 in 1.5 mi WSW 24.2 mph 31.1 mph N/A Snow Light Snow
5:35 PM 25.2 °F 11.2 °F 17.1 °F 71% 29.80 in 4.0 mi WSW 19.6 mph 28.8 mph N/A Snow Light Snow
5:56 PM 24.1 °F 13.7 °F 18.9 °F 80% 29.81 in 1.5 mi WSW 10.4 mph 21.9 mph N/A Snow Light Snow
6:16 PM 24.4 °F 9.9 °F 17.4 °F 75% 29.81 in 4.0 mi WSW 20.7 mph 33.4 mph N/A Snow Light Snow
7:35 PM 21.6 °F 6.9 °F 14.0 °F 73% 29.87 in 5.0 mi West 18.4 mph 28.8 mph N/A Snow Light Snow
7:56 PM 21.6 °F 9.3 °F 13.6 °F 72% 29.87 in 10.0 mi West 12.7 mph 24.2 mph N/A Snow Light Snow
8:16 PM 21.2 °F 8.3 °F 14.4 °F 75% 29.87 in 7.0 mi West 13.8 mph 19.6 mph N/A Snow Light Snow
8:56 PM 20.5 °F 3.5 °F 12.9 °F 73% 29.88 in 4.0 mi West 24.2 mph 34.5 mph N/A Snow Light Snow
9:16 PM 20.1 °F 6.9 °F 13.3 °F 75% 29.89 in 4.0 mi West 13.8 mph 26.5 mph N/A Snow Light Snow
9:35 PM 19.6 °F 2.3 °F 12.9 °F 75% 29.89 in 3.0 mi West 24.2 mph 31.1 mph N/A Snow Light Snow
9:56 PM 19.4 °F 2.5 °F 12.6 °F 75% 29.90 in 4.0 mi West 23.0 mph 31.1 mph N/A Snow Light Snow
10:16 PM 18.5 °F 2.4 °F 11.7 °F 75% 29.90 in 10.0 mi West 19.6 mph 25.3 mph N/A Snow Light Snow
10:35 PM 18.3 °F 2.6 °F 12.2 °F 77% 29.91 in 4.0 mi West 18.4 mph - N/A Snow Light Snow
10:56 PM 18.0 °F 3.6 °F 11.5 °F 76% 29.91 in 7.0 mi WSW 15.0 mph 21.9 mph N/A Snow Light Snow
11:16 PM 18.0 °F 3.6 °F 10.8 °F 73% 29.91 in 7.0 mi West 15.0 mph 21.9 mph N/A Snow Light Snow
11:35 PM 17.6 °F 3.2 °F 10.9 °F 75% 29.92 in 5.0 mi West 15.0 mph 21.9 mph N/A Snow Light Snow
11:56 PM 17.4 °F 5.4 °F 11.1 °F 76% 29.92 in 5.0 mi WSW 10.4 mph 19.6 mph N/A Snow Light Snow